Terminal Aerodrome Forecast
Issued by NWS

Home | Current Version | Previous Version | Text Only | Print | Product List | Glossary On
Versions: 1 2 3 4 5 6 7 8 9 10 11 12
275
FTUS45 KRIW 260520
TAFCOD
TAF
KCOD 260520Z 2606/2706 21006KT P6SM FEW100
     FM261600 13008KT P6SM FEW060 SCT250
     FM262100 34008KT P6SM SCT060 BKN120
     FM270000 01012G18KT P6SM SCT080 BKN120
      AMD LTD TO CLD VIS AND WIND=

USA.gov is the U.S. government's official web portal to all federal, state and local government web resources and services.